createdAt,value
2023-09-06T00:00:18.740Z,16.62
2023-09-06T00:10:24.261Z,16.51
2023-09-06T00:20:26.801Z,16.39
2023-09-06T00:30:29.233Z,16.24
2023-09-06T00:40:37.272Z,16.13
2023-09-06T00:50:43.511Z,16.02
2023-09-06T01:00:47.806Z,15.91
2023-09-06T01:10:52.019Z,15.76
2023-09-06T01:21:03.845Z,15.66
2023-09-06T01:31:06.275Z,15.59
2023-09-06T01:41:12.593Z,15.48
2023-09-06T01:51:17.028Z,15.36
2023-09-06T02:01:20.636Z,15.25
2023-09-06T02:11:23.706Z,15.13
2023-09-06T02:21:27.197Z,15.01
2023-09-06T02:31:29.612Z,14.93
2023-09-06T02:41:32.876Z,14.86
2023-09-06T02:51:38.761Z,14.74
2023-09-06T03:01:46.523Z,14.65
2023-09-06T03:11:49.573Z,14.51
2023-09-06T03:21:56.211Z,14.43
2023-09-06T03:31:58.631Z,14.29
2023-09-06T03:42:02.265Z,14.20
2023-09-06T03:52:06.250Z,14.10
2023-09-06T04:12:17.299Z,13.94
2023-09-06T04:22:21.314Z,13.83
2023-09-06T04:32:25.685Z,13.74
2023-09-06T04:42:28.591Z,13.67
2023-09-06T04:52:30.989Z,13.65
2023-09-06T05:02:34.048Z,13.63
2023-09-06T05:12:37.602Z,13.64
2023-09-06T05:22:41.077Z,13.62
2023-09-06T05:32:45.487Z,13.65
2023-09-06T05:42:49.069Z,13.64
2023-09-06T05:52:53.372Z,13.73
2023-09-06T06:03:01.281Z,13.96
2023-09-06T06:13:06.343Z,14.21
2023-09-06T06:23:09.753Z,14.54
2023-09-06T06:33:13.601Z,14.84
2023-09-06T06:43:18.321Z,15.17
2023-09-06T06:53:21.003Z,15.52
2023-09-06T07:03:25.745Z,15.92
2023-09-06T07:13:29.888Z,16.31
2023-09-06T07:23:33.264Z,16.71
2023-09-06T07:33:37.179Z,17.04
2023-09-06T07:43:40.630Z,17.39
2023-09-06T07:53:43.752Z,17.81
2023-09-06T08:03:47.511Z,18.23
2023-09-06T08:13:52.445Z,18.57
2023-09-06T08:23:55.840Z,19.04
2023-09-06T08:33:58.703Z,19.47
2023-09-06T08:44:07.732Z,19.92
2023-09-06T08:54:11.826Z,20.33
2023-09-06T09:04:14.383Z,20.64
2023-09-06T09:14:27.244Z,20.97
2023-09-06T09:24:31.205Z,21.33
2023-09-06T09:34:34.250Z,21.66
2023-09-06T09:44:36.545Z,21.96
2023-09-06T09:54:44.585Z,22.28
2023-09-06T10:04:50.254Z,22.60
2023-09-06T10:14:55.494Z,22.97
2023-09-06T10:25:08.373Z,23.25
2023-09-06T10:35:23.398Z,23.49
2023-09-06T10:45:27.037Z,23.74
2023-09-06T10:55:44.105Z,24.11
2023-09-06T11:05:54.322Z,24.48
2023-09-06T11:15:57.129Z,24.79
2023-09-06T11:26:00.153Z,25.09
2023-09-06T11:36:05.547Z,25.50
2023-09-06T11:46:10.489Z,25.85
2023-09-06T11:56:15.907Z,26.17
2023-09-06T12:06:20.977Z,26.46
2023-09-06T12:16:25.818Z,26.85
2023-09-06T12:26:28.821Z,27.30
2023-09-06T12:36:33.099Z,27.73
2023-09-06T12:46:36.510Z,28.12
2023-09-06T12:56:41.543Z,28.67
2023-09-06T13:06:45.602Z,28.99
2023-09-06T13:16:48.795Z,29.59
2023-09-06T13:26:51.786Z,29.86
2023-09-06T13:36:54.986Z,30.31
2023-09-06T13:46:59.839Z,30.60
2023-09-06T13:57:02.454Z,30.95
2023-09-06T14:07:06.901Z,30.99
2023-09-06T14:17:10.140Z,31.03
2023-09-06T14:27:13.053Z,30.20
2023-09-06T14:37:16.885Z,29.70
2023-09-06T14:47:20.384Z,29.52
2023-09-06T14:57:23.345Z,28.97
2023-09-06T15:07:26.334Z,28.58
2023-09-06T15:17:29.073Z,28.22
2023-09-06T15:27:31.980Z,27.94
2023-09-06T15:37:35.596Z,27.76
2023-09-06T15:47:41.938Z,27.58
2023-09-06T15:57:47.187Z,27.30
2023-09-06T16:07:51.224Z,27.04
2023-09-06T16:17:55.015Z,26.75
2023-09-06T16:27:57.806Z,26.43
2023-09-06T16:38:00.425Z,26.03
2023-09-06T16:48:03.258Z,25.65
2023-09-06T16:58:09.037Z,25.32
2023-09-06T17:08:11.846Z,24.94
2023-09-06T17:18:17.331Z,24.56
2023-09-06T17:28:21.088Z,24.16
2023-09-06T17:38:24.626Z,23.73
2023-09-06T17:48:27.973Z,23.32
2023-09-06T17:58:31.209Z,22.95
2023-09-06T18:08:36.291Z,22.56
2023-09-06T18:18:39.471Z,22.19
2023-09-06T18:28:42.153Z,21.86
2023-09-06T18:38:44.816Z,21.56
2023-09-06T18:48:47.736Z,21.27
2023-09-06T18:58:53.915Z,20.99
2023-09-06T19:08:58.135Z,20.74
2023-09-06T19:19:01.764Z,20.47
2023-09-06T19:29:04.749Z,20.23
2023-09-06T19:39:13.353Z,20.02
2023-09-06T19:49:16.175Z,19.80
2023-09-06T19:59:18.992Z,19.59
2023-09-06T20:09:22.941Z,19.41
2023-09-06T20:19:26.568Z,19.25
2023-09-06T20:29:30.001Z,19.08
2023-09-06T20:39:32.806Z,18.90
2023-09-06T20:49:35.646Z,18.74
2023-09-06T20:59:38.644Z,18.59
2023-09-06T21:09:41.472Z,18.46
2023-09-06T21:19:44.388Z,18.28
2023-09-06T21:29:47.162Z,18.13
2023-09-06T21:39:49.769Z,18.03
2023-09-06T21:49:52.325Z,17.91
2023-09-06T21:59:54.904Z,17.78
2023-09-06T22:09:57.709Z,17.70
2023-09-06T22:20:00.546Z,17.57
2023-09-06T22:30:04.505Z,17.47
2023-09-06T22:40:08.186Z,17.39
2023-09-06T22:50:11.133Z,17.25
2023-09-06T23:00:14.518Z,17.17
2023-09-06T23:10:18.344Z,17.07
2023-09-06T23:20:27.694Z,16.99
2023-09-06T23:30:32.572Z,16.88
2023-09-06T23:40:38.565Z,16.79
2023-09-06T23:50:40.923Z,16.70
